New Lebanon Center, New York
Current Conditions -  °F | °C
As of 8:39 PM on Wednesday 22 Oct 2014 (Local Time) from KPSF Reporting Station
Light Rain Light Rain  
Wind Chill: 41°   Ceiling: 1400
Heat Index: 47°   Visibility: 6mi
Dew Point: 45°   Wind: 13mph
Humidity: 93%   Direction: 30°NNE
Pressure: 29.89"   Gusts: 21mph
Location:  42.4821°N, 73.3747°W
Report Text: KPSF 230039Z AUTO 03011G18KT 6SM -RA BR BKN014 OVC021 08/07 A2989 RMK AO2 RAB2356 P0000 T00830072
Loading
Personal Weather Stations






























Interactive Weather Map
Tropical Storm Tracking
New forecast layout! Learn more

10-Day Weather Forecast

Advertisements
Track Severe Weather on mobile